Airfield :
LOGIN :

Register | Disclaimer

   EN    FR    IT 

 










Legend :    VFR   Marginal VFR   IFR   Intensive IFR   Very Intensive IFR
Visi :
Ceiling :
>= 8 km
>= 3000ft
5 to 8 km
1000 to 3000 ft
1500m to 5 km
500 to 1000 ft
800 to 1500m
200 to 500 ft
< 800m
< 200 ft
Symbols :   Thunderstorms  Fog  Heavy snow  Heavy precipitations  Wind > 20 kt
SIGMETs :     Misc.  Thunderstorms  Icing  Turbulence  Mountain Waves  Volcanic Ashes







- Airport Elevation : 3368 ft


LSGC - Les Eplatures

CURRENT METAR :
  • 241120Z AUTO VRB04KT CAVOK 22/11 Q1023

EXPIRED METARs :
  • 241050Z 24004KT 170V290 CAVOK 22/12 Q1023
  • 241020Z 22005KT 180V260 CAVOK 22/10 Q1023
  • 240950Z 22004KT 170V270 CAVOK 21/10 Q1023
  • 240920Z 21005KT 160V270 CAVOK 20/08 Q1023
  • 240850Z 20006KT CAVOK 20/11 Q1023

TAF TAF LSGC
Valid from the 24 at 12:00 until the 24 at 21:00 UTC


241125Z 2412/2421 VRB03KT CAVOK
No reported NOTAMs for that airfield.



MET'MAP, your aeronautical weather chart ! - Copyright ORBIFLY December 2007 - Disclaimer

ORBIFLY MET'MAP TEAM :

Programming & Development : Alexandra Zaïnal
Concept & Development : Baudouin d'Aumeries
Co-Development & Prog : Marc-Olivier Méhu
Technical & hardware support : Manuel Goepfert

Contact : metmap@orbifly.com




SOURCES & CREDITS :

   NOAA